Terminal Aerodrome Forecast
Issued by NWS

Home | Current Version | Previous Version | Text Only | Print | Product List | Glossary On
Versions: 1 2 3 4 5 6 7 8 9 10 11 12 13
000
FTUS45 KGJT 240533
TAFVEL
TAF
KVEL 240533Z 2406/2506 30005KT P6SM SCT120
     FM241500 VRB03KT P6SM FEW250
     FM242100 25007KT P6SM FEW110
     FM250200 33007KT P6SM FEW250=

USA.gov is the U.S. government's official web portal to all federal, state and local government web resources and services.